Flight Track Log - Related Links

Times and Time Zones

All times are in EDT time to prevent confusion due to time zone crossing. See the OPT332 flight status page for this flight to view local times or setup timezone preferences in your user account.

Time Position Orientation Groundspeed Altitude Reporting Facility
EDT Latitude Longitude Course Direction KTS MPH feet Rate Location/Type
Thu 08:37:57 AM 39.2167 -76.7167 256° West 195 224 3,700  Level Potomac TRACON
Thu 08:38:57 AM 39.2167 -76.8000 270° West 264 304 6,000 2,650 Climbing Potomac TRACON
Thu 08:39:57 AM 39.2167 -76.9000 270° West 256 295 9,000 2,368 Climbing Potomac TRACON
Thu 08:42:02 AM 39.2128 -77.0756 268° West 260 299 13,300 1,968 Climbing Washington Center
Thu 08:43:00 AM 39.3839 -77.3878 256° West  Level Estimated
Thu 08:43:03 AM 39.1950 -77.1689 256° West 260 299 15,100  Level Washington Center
Thu 08:44:04 AM 39.1458 -77.2483 231° Southwest 260 299 16,800 1,412 Climbing Washington Center
Thu 08:45:02 AM 39.1133 -77.3464 247° West 284 327 17,900 1,210 Climbing Washington Center
Thu 08:46:03 AM 39.0847 -77.4475 250° West 298 343 19,200 1,328 Climbing Washington Center
Thu 08:47:04 AM 39.0517 -77.5614 250° West 310 357 20,600 1,261 Climbing Washington Center
Thu 08:48:02 AM 39.0206 -77.6675 249° West 316 364 21,700 1,424 Climbing Washington Center
Thu 08:49:02 AM 38.9853 -77.7733 247° West 325 374 23,400 1,686 Climbing Washington Center
Thu 08:50:03 AM 38.9586 -77.8633 249° West 333 383 25,100 1,967 Climbing Washington Center
Thu 08:51:04 AM 38.9208 -77.9903 249° West 344 396 27,400 1,966 Climbing Washington Center
Thu 08:52:02 AM 38.8917 -78.0853 248° West 350 403 29,000 2,339 Climbing Washington Center
Thu 08:53:02 AM 38.8511 -78.2253 250° West 350 403 32,000 1,967 Climbing Washington Center
Thu 08:54:04 AM 38.8506 -78.3478 270° West 337 388 33,000 504 Climbing Washington Center
Thu 08:55:01 AM 38.8514 -78.4892 270° West 363 418 33,000 814 Level Washington Center
Thu 08:56:02 AM 38.8481 -78.6250 268° West 382 440 34,600 1,268 Climbing Washington Center
Thu 08:57:04 AM 38.8464 -78.7661 269° West 392 451 35,600 984 Climbing Washington Center
Thu 08:58:04 AM 38.8447 -78.9075 269° West 397 457 36,600 1,220 Climbing Washington Center
Thu 08:59:02 AM 38.8428 -79.0486 269° West 403 464 38,000 1,475 Climbing Washington Center
Thu 09:00:02 AM 38.8408 -79.1897 269° West 403 464 39,500 1,587 Climbing Washington Center
Thu 09:01:03 AM 38.8389 -79.3203 269° West 393 452 41,200 1,623 Climbing Washington Center
Thu 09:02:04 AM 38.8344 -79.4639 268° West 372 428 42,800 1,488 Climbing Washington Center
Thu 09:03:04 AM 38.8356 -79.5572 271° West 343 395 44,200 795 Climbing Washington Center
Thu 09:04:50 AM 38.8289 -79.7653 268° West 332 382 45,000 286 Climbing Indianapolis Center
Thu 09:05:52 AM 38.8253 -79.8878 268° West 342 394 45,000  Level Indianapolis Center
Thu 09:06:54 AM 38.8217 -80.0156 268° West 357 411 45,000  Level Indianapolis Center
Thu 09:07:55 AM 38.8169 -80.1719 268° West 364 419 45,000  Level Indianapolis Center
Thu 09:08:57 AM 38.8139 -80.3075 268° West 377 434 45,000  Level Indianapolis Center
Thu 09:09:59 AM 38.8114 -80.4425 269° West 379 436 45,000  Level Indianapolis Center
Thu 09:11:01 AM 38.8067 -80.5808 268° West 385 443 45,000  Level Indianapolis Center
Thu 09:12:03 AM 38.8031 -80.7211 268° West 392 451 45,000  Level Indianapolis Center
Thu 09:13:04 AM 38.7975 -80.8603 267° West 393 452 45,000  Level Indianapolis Center
Thu 09:14:06 AM 38.7933 -81.0017 268° West 396 456 45,000  Level Indianapolis Center
Thu 09:15:08 AM 38.7878 -81.1708 268° West 397 457 45,000  Level Indianapolis Center
Thu 09:16:10 AM 38.7833 -81.3131 268° West 401 461 45,000  Level Indianapolis Center
Thu 09:17:12 AM 38.7917 -81.4492 275° West 398 458 45,000  Level Indianapolis Center
Thu 09:18:13 AM 38.8533 -81.5694 303° West 404 465 45,000  Level Indianapolis Center
Thu 09:19:15 AM 38.9217 -81.6772 309° West 400 460 45,000  Level Indianapolis Center
Thu 09:20:17 AM 39.0025 -81.8100 308° West 395 455 45,000  Level Indianapolis Center
Thu 09:21:19 AM 39.0711 -81.9208 309° West 396 456 45,000  Level Indianapolis Center
Thu 09:22:21 AM 39.1394 -82.0325 308° West 398 458 45,000  Level Indianapolis Center
Thu 09:23:23 AM 39.2083 -82.1453 308° West 399 459 45,000  Level Indianapolis Center
Thu 09:24:25 AM 39.2764 -82.2578 308° West 398 458 45,000  Level Indianapolis Center
Thu 09:25:26 AM 39.3450 -82.3700 308° West 399 459 45,000  Level Indianapolis Center
Thu 09:26:28 AM 39.4225 -82.4994 308° West 401 461 45,000  Level Indianapolis Center
Thu 09:27:30 AM 39.4922 -82.6128 309° West 401 461 45,000  Level Indianapolis Center
Thu 09:28:32 AM 39.5606 -82.7269 308° West 402 463 45,000  Level Indianapolis Center
Thu 09:29:34 AM 39.6286 -82.8411 308° West 402 463 45,000  Level Indianapolis Center
Thu 09:30:36 AM 39.6964 -82.9556 308° West 401 461 45,000  Level Indianapolis Center
Thu 09:31:38 AM 39.7786 -83.0925 308° West 402 463 45,000  Level Indianapolis Center
Thu 09:32:39 AM 39.8464 -83.2064 308° West 402 463 45,000  Level Indianapolis Center
Thu 09:33:41 AM 39.9136 -83.3197 308° West 402 463 45,000  Level Indianapolis Center
Thu 09:34:43 AM 39.9817 -83.4328 308° West 406 467 45,000  Level Indianapolis Center
Thu 09:35:45 AM 40.0606 -83.5711 307° West 405 466 45,000  Level Indianapolis Center
Thu 09:36:47 AM 40.1278 -83.6864 307° West 403 464 45,000  Level Indianapolis Center
Thu 09:37:49 AM 40.1939 -83.8008 307° West 398 458 45,000 -532 Level Indianapolis Center
Thu 09:38:51 AM 40.2603 -83.9164 307° West 399 459 43,900 -1,597 Descending Indianapolis Center
Thu 09:39:53 AM 40.3281 -84.0331 307° West 402 463 41,700 -2,081 Descending Indianapolis Center
Thu 09:40:55 AM 40.3931 -84.1464 307° West 393 452 39,600 -2,274 Descending Indianapolis Center
Thu 09:41:57 AM 40.4703 -84.2822 307° West 388 447 37,000 -2,323 Descending Indianapolis Center
Thu 09:42:59 AM 40.5378 -84.3994 307° West 401 461 34,800 -2,064 Descending Indianapolis Center
Thu 09:44:02 AM 40.6025 -84.5122 307° West 390 449 32,700 -2,081 Descending Indianapolis Center
Thu 09:45:03 AM 40.6675 -84.6306 306° West 398 458 30,500 -1,512 Descending Indianapolis Center
Thu 09:46:05 AM 40.7361 -84.7503 307° West 408 470 29,600 -1,695 Descending Indianapolis Center
Thu 09:47:14 AM 40.8169 -84.8894 308° West 419 482 26,800 -2,107 Descending Chicago Center
Thu 09:48:16 AM 40.9206 -85.0214 316° Northwest 430 495 25,000 -878 Descending Chicago Center
Thu 09:49:17 AM 41.0089 -85.1117 322° Northwest 409 471 25,000 -49 Level Chicago Center
Thu 09:50:19 AM 41.0972 -85.1978 324° Northwest 397 457 24,900 -484 Descending Chicago Center
Thu 09:51:21 AM 41.1872 -85.2867 323° Northwest 401 461 24,000 -439 Descending Chicago Center
Thu 09:52:22 AM 41.2783 -85.3767 323° Northwest 405 466 24,000 -1,171 Level Chicago Center
Thu 09:53:24 AM 41.3658 -85.4647 323° Northwest 397 457 21,600 -2,976 Descending Chicago Center
Thu 09:54:25 AM 41.4533 -85.5514 323° Northwest 388 447 17,900 -2,683 Descending Chicago Center
Thu 09:55:27 AM 41.5133 -85.6567 307° West 359 413 16,100 -871 Descending Chicago Center
Thu 09:56:29 AM 41.5194 -85.7792 274° West 329 379 16,100  Level Chicago Center
Thu 09:57:30 AM 41.5219 -85.9381 271° West 356 410 16,100 -537 Level Chicago Center
Thu 09:58:32 AM 41.5236 -86.0586 271° West 333 383 15,000 -1,228 Descending Chicago Center
Thu 09:59:37 AM 41.5206 -86.1675 268° West 301 346 13,500 -1,465 Descending Chicago Center
Thu 10:00:39 AM 41.5067 -86.2783 261° West 304 350 11,900 -1,220 Descending Chicago Center
Thu 10:01:40 AM 41.4856 -86.3758 254° West 282 325 11,000 -878 Descending Chicago Center
Thu 10:02:42 AM 41.4683 -86.4853 258° West 299 344 10,100 -1,317 Descending Chicago Center
Thu 10:03:43 AM 41.4539 -86.6042 261° West 280 322 8,300 -1,610 Descending Chicago Center
Thu 10:04:45 AM 41.4311 -86.6961 252° West 265 305 6,800 -1,113 Descending Chicago Center
Thu 10:05:47 AM 41.4250 -86.7878 265° West 259 298 6,000 -390 Descending Chicago Center
Thu 10:06:48 AM 41.4219 -86.8822 268° West 254 292 6,000  Level Chicago Center
Thu 10:07:50 AM 41.4269 -86.9742 274° West 251 289 6,000  Level Chicago Center
Thu 10:08:51 AM 41.4492 -87.0656 288° West 255 293 6,000 -49 Level Chicago Center
Thu 10:09:53 AM 41.4764 -87.1728 289° West 256 295 5,900 -439 Descending Chicago Center
Thu 10:10:54 AM 41.4981 -87.2639 288° West 258 297 5,100 -976 Descending Chicago Center
Thu 10:11:56 AM 41.5214 -87.3539 289° West 259 298 3,900 -581 Descending Chicago Center
Thu 10:12:58 AM 41.5550 -87.4300 301° West 245 282 3,900  Level Chicago Center
Thu 10:13:59 AM 41.5706 -87.5164 284° West 250 288 3,900  Level Chicago Center
Thu 10:15:01 AM 41.5664 -87.6069 267° West 251 289 3,900  Level Chicago Center
Thu 10:16:02 AM 41.5631 -87.7147 268° West 245 282 3,900  Level Chicago Center
Thu 10:17:04 AM 41.5772 -87.8008 282° West 247 284 3,900 -488 Level Chicago Center
Thu 10:18:05 AM 41.6022 -87.8814 293° West 244 281 2,900 -732 Descending Chicago Center
Thu 10:19:07 AM 41.6594 -87.9358 325° Northwest 254 292 2,400 -244 Descending Chicago Center
Thu 10:20:08 AM 41.7211 -87.9767 334° Northwest 253 291 2,400  Level Chicago Center
Thu 10:21:10 AM 41.7881 -87.9717 North 248 285 2,400 -98 Level Chicago Center
Thu 10:22:11 AM 41.8506 -87.9353 23° Northeast 230 265 2,200 -195 Descending Chicago Center
Thu 10:23:13 AM 41.8633 -87.8706 75° East 212 244 2,000 -145 Descending Chicago Center
Thu 10:24:15 AM 41.8353 -87.8244 129° Southeast 180 207 1,900 -390 Descending Chicago Center
Thu 10:25:16 AM 41.8128 -87.7917 133° Southeast 145 167 1,200 -488 Descending Chicago Center
Thu 10:26:18 AM 41.7883 -87.7558 132° Southeast 131 151 900 -290 Descending Chicago Center

Login

Don't have an account? Register now (free) for customized features, flight alerts, and more!